Albuquerque, NM (87110)

9:02 AM MST on February 19, 2017 (GMT -0700)
La Resolana | | Change Station

Elev 5225 ft 35.09 °N, 106.60 °W | Updated 20 seconds ago

Mostly Cloudy
Mostly Cloudy
41.7 °F
Feels Like 42 °F
N
0.9
Wind Variable Wind from South
Gusts 7.0 mph

Today
High -- | Low -- °F
--% Chance of Precip.
Yesterday
High -- | Low -- °F
Precip. -- in
Pressure 29.82 in
Visibility 9.0 miles
Clouds Few 1000 ft
Mostly Cloudy 2100 ft
Mostly Cloudy 2700 ft
Windchill 42 °F
Dew Point 38 °F
Humidity 86%
Rainfall 0.04 in
Snow Depth Not available.
6:47 AM 5:53 PM
Last Quarter, 42% visible
METAR KABQ 191552Z 18009KT 9SM -DZ FEW010 BKN021 BKN027 05/03 A2989 RMK AO2 RAB08E33DZB51 SLP097 MTNS OBSC NE-SE P0000 T00500033
Pressure 29.82 in
Visibility 9.0 miles
Clouds Few 1000 ft
Mostly Cloudy 2100 ft
Mostly Cloudy 2700 ft
Windchill 42 °F
Dew Point 38 °F
Humidity 86%
Rainfall 0.04 in
Snow Depth Not available.
6:47 AM 5:53 PM
Last Quarter, 42% visible
METAR KABQ 191552Z 18009KT 9SM -DZ FEW010 BKN021 BKN027 05/03 A2989 RMK AO2 RAB08E33DZB51 SLP097 MTNS OBSC NE-SE P0000 T00500033

Get Your Daily Forecast Email!

Thanks for signing up!

Be on the lookout for a verification email in your inbox.

You'll start receiving the daily forecast at 8 AM.

×

10-Day Weather Forecast

Almanac

Astronomy

Feb. 19, 2017 Rise Set
Actual Time
Civil Twilight
Nautical Twilight
Astronomical Twilight
Moon
Length of Visible Light
Length of Day
Tomorrow will be .
, % of the Moon is Illuminated

Today's Extremes

State Highs State Lows

Community

WunderPhotos

Upload Photos

1,962,540 photos uploaded!

WunderBlog® & News

Nearby

Air Quality

  Air Quality AQ Index Pollutant
Not available.

Snow Depth

Station Depth Elevation

Earthquake Activity

City Distance Mag. Time & Date
Minimum magnitude displayed is 2.5.

Coastal Water Temperatures

Place Temperature

Stations

Nearby Weather Stations

Station Location Temp. Windchill Dew Point Humidity Wind Precip. Elev Updated Type
                   

Watches & Warnings

There are currently no watches in effect.